Latest Coastal Weather Observations for Cape Byron

IDN60701

Issued at 2:01 am EDT Friday 12 February 2016 (issued every 10 minutes, with the page automatically refreshed every 10 minutes)

About coastal observations | Map of coastal stations | Coastal observations for NSW | Marine services | Other Formats
Station Details ID: 058216 Name: CAPE BYRON AWS Lat: -28.64 Lon: 153.64 Height: 95.0 m
Data from the previous 72 hours. | See also: Recent months at Cape Byron
Date/Time
EDT
Temp

°C
Wind Pressure Rain
since 9am
mm
Weather Cloud Vis
km
Sea
Height
m
Swell
Dir
 
Speed
knots
Gust
knots
hPa Trend Height
m
Period
s
Dir
12/02:00am 23.6 SE 16 19 1013.3 - 0.2 - - - - - - -
12/01:30am 23.6 ESE 16 19 1013.6 - 0.2 - - - - - - -
12/01:00am 23.5 ESE 16 19 1013.7 - 0.2 - - - - - - -
12/12:30am 23.6 ESE 14 17 1014.0 - 0.2 - - - - - - -
12/12:00am 23.6 E 15 19 1014.2 - 0.2 - - - - - - -
 
Date/Time
EDT
Temp

°C
Wind Pressure Rain
since 9am
mm
Weather Cloud Vis
km
Sea
Height
m
Swell
Dir
 
Speed
knots
Gust
knots
hPa Trend Height
m
Period
s
Dir
11/11:30pm 23.7 ESE 16 20 1014.3 - 0.2 - - - - - - -
11/11:00pm 23.5 E 17 21 1014.3 - 0.2 - - - - - - -
11/10:30pm 23.5 E 17 21 1014.2 - 0.2 - - - - - - -
11/10:00pm 23.6 E 17 21 1014.2 - 0.2 - - - - - - -
11/09:30pm 23.7 E 17 20 1014.2 - 0.2 - - - - - - -
11/09:00pm 23.9 E 18 21 1013.9 - 0.2 - - - - - - -
11/08:30pm 23.8 E 17 20 1013.7 - 0.2 - - - - - - -
11/08:00pm 24.0 E 17 21 1013.5 - 0.2 - - - - - - -
11/07:30pm 23.9 E 17 22 1013.2 - 0.2 - - - - - - -
11/07:00pm 24.3 ESE 16 21 1013.0 - 0.2 - - - - - - -
11/06:30pm 24.6 ESE 17 21 1012.7 - 0.2 - - - - - - -
11/06:00pm 24.8 ESE 19 23 1012.5 - 0.2 - - - - - - -
11/05:30pm 25.5 ESE 18 22 1012.4 - 0.2 - - - - - - -
11/05:00pm 25.6 ESE 18 22 1012.3 - 0.2 - - - - - - -
11/04:30pm 25.7 SE 16 20 1012.5 - 0.2 - - - - - - -
11/04:00pm 25.9 SE 12 17 1012.4 - 0.2 - - - - - - -
11/03:30pm 26.1 SE 14 18 1012.7 - 0.2 - - - - - - -
11/03:00pm 25.9 SE 14 18 1013.0 - 0.2 - - - - - - -
11/02:30pm 26.4 SE 13 18 1013.3 - 0.2 - - - - - - -
11/02:00pm 26.4 SE 14 18 1013.6 - 0.2 - - - - - - -
11/01:30pm 26.5 SE 14 17 1013.8 - 0.2 - - - - - - -
11/01:00pm 26.6 SE 13 17 1013.9 - 0.2 - - - - - - -
11/12:30pm 26.7 SE 14 18 1014.0 - 0.2 - - - - - - -
11/12:00pm 26.7 SE 13 17 1014.3 - 0.2 - - - - - - -
11/11:30am 25.8 ESE 14 17 1014.3 - 0.2 - - - - - - -
11/11:00am 26.3 ESE 14 16 1014.3 - 0.2 - - - - - - -
11/10:30am 26.2 ESE 13 17 1014.0 - 0.0 - - - - - - -
11/10:00am 24.0 S 8 10 1014.1 - 0.0 - - - - - - -
11/09:30am 23.4 SSW 9 11 1014.1 - 0.0 - - - - - - -
11/09:00am 22.9 SSW 9 11 1014.1 - 4.4 - - - - - - -
11/08:30am 22.2 SW 6 9 1013.9 - 4.4 - - - - - - -
11/08:00am 21.1 SW 8 10 1013.7 - 4.4 - - - - - - -
11/07:30am 20.7 SW 8 10 1013.4 - 4.4 - - - - - - -
11/07:00am 20.8 SW 7 9 1013.0 - 4.4 - - - - - - -
11/06:30am 21.0 SW 7 10 1012.7 - 4.4 - - - - - - -
11/06:00am 21.5 SW 7 11 1012.6 - 4.4 - - - - - - -
11/05:30am 21.5 S 6 9 1012.3 - 4.4 - - - - - - -
11/05:00am 22.8 ESE 11 15 1012.2 - 4.4 - - - - - - -
11/04:30am 22.9 ESE 11 15 1012.3 - 4.4 - - - - - - -
11/04:00am 22.7 ESE 11 14 1012.4 - 4.4 - - - - - - -
11/03:30am 22.8 E 11 14 1012.5 - 4.4 - - - - - - -
11/03:00am 22.7 E 13 16 1012.7 - 4.4 - - - - - - -
11/02:30am 22.8 E 10 14 1013.0 - 4.4 - - - - - - -
11/02:00am 23.0 ESE 12 15 1013.1 - 4.4 - - - - - - -
11/01:30am 22.8 ESE 12 15 1013.4 - 4.4 - - - - - - -
11/01:00am 21.9 E 13 16 1013.6 - 4.4 - - - - - - -
11/12:30am 21.4 SSW 6 8 1013.9 - 4.4 - - - - - - -
11/12:00am 21.0 SW 6 7 1014.2 - 4.4 - - - - - - -
 
Date/Time
EDT
Temp

°C
Wind Pressure Rain
since 9am
mm
Weather Cloud Vis
km
Sea
Height
m
Swell
Dir
 
Speed
knots
Gust
knots
hPa Trend Height
m
Period
s
Dir
10/11:30pm 21.0 SW 8 9 1014.2 - 4.4 - - - - - - -
10/11:00pm 21.1 SW 6 8 1014.4 - 4.4 - - - - - - -
10/10:30pm 21.7 ESE 5 7 1014.6 - 4.4 - - - - - - -
10/10:00pm 21.6 SE 8 14 1014.6 - 4.0 - - - - - - -
10/09:50pm 21.6 SE 15 25 1014.7 - 4.0 - - - - - - -
10/09:30pm 22.3 S 13 17 1014.7 - 4.0 - - - - - - -
10/09:00pm 22.3 SSE 12 17 1014.5 - 4.0 - - - - - - -
10/08:30pm 22.3 SSE 15 19 1014.4 - 4.0 - - - - - - -
10/08:27pm 22.4 SSE 15 25 1014.3 - 4.0 - - - - - - -
10/08:00pm 22.2 SE 16 22 1014.1 - 4.0 - - - - - - -
10/07:30pm 22.9 ESE 17 23 1013.8 - 4.0 - - - - - - -
10/07:00pm 23.1 SSE 14 23 1013.6 - 4.0 - - - - - - -
10/06:30pm 22.9 SSE 16 21 1013.1 - 4.0 - - - - - - -
10/06:00pm 21.9 S 18 22 1012.9 - 4.0 Rain - - - - - -
10/05:30pm 21.6 S 18 22 1013.1 - 2.4 - - - - - - -
10/05:00pm 21.3 SE 17 21 1013.1 - 2.0 - - - - - - -
10/04:30pm 21.9 ESE 21 26 1012.6 - 0.4 - - - - - - -
10/04:23pm 22.5 ESE 15 25 1012.7 - 0.4 - - - - - - -
10/04:00pm 22.4 SE 14 23 1013.0 - 0.4 - - - - - - -
10/03:35pm 22.2 SE 18 23 1013.2 - 0.0 - - - - - - -
10/03:30pm 22.7 SE 20 25 1013.1 - 0.0 - - - - - - -
10/03:21pm 23.0 ESE 23 28 1012.9 - 0.0 - - - - - - -
10/03:00pm 24.8 SE 13 19 1013.3 - 0.0 - - - - - - -
10/02:30pm 24.9 SSW 13 18 1013.5 - 0.0 - - - - - - -
10/02:00pm 25.3 SSW 16 20 1013.7 - 0.0 - - - - - - -
10/01:30pm 23.8 SSW 20 22 1013.8 - 0.0 - - - - - - -
10/01:00pm 24.6 S 18 24 1013.9 - 0.0 - - - - - - -
10/12:30pm 24.7 SSE 16 22 1014.0 - 0.0 - - - - - - -
10/12:00pm 24.1 S 17 23 1014.3 - 0.0 - - - - - - -
10/11:30am 25.1 S 16 21 1014.4 - 0.0 - - - - - - -
10/11:00am 24.3 SSW 12 17 1014.6 - 0.0 - - - - - - -
10/10:30am 23.8 SW 9 13 1014.8 - 0.0 - - - - - - -
10/10:00am 23.1 SW 10 13 1014.8 - 0.0 - - - - - - -
10/09:30am 23.0 SW 11 17 1014.7 - 0.0 - - - - - - -
10/09:00am 23.1 SW 9 13 1014.5 - 0.0 - - - - - - -
10/08:30am 24.1 S 15 20 1014.2 - 0.0 - - - - - - -
10/08:00am 23.7 S 17 21 1014.0 - 0.0 - - - - - - -
10/07:30am 23.6 S 20 25 1013.7 - 0.0 - - - - - - -
10/07:00am 23.5 SSE 18 23 1013.4 - 0.0 - - - - - - -
10/06:30am 23.5 SSE 16 22 1013.2 - 0.0 - - - - - - -
10/06:00am 23.4 S 14 19 1013.2 - 0.0 - - - - - - -
10/05:30am 23.4 SSE 16 23 1013.1 - 0.0 - - - - - - -
10/05:00am 23.2 SSE 14 20 1012.9 - 0.0 - - - - - - -
10/04:30am 23.2 SE 17 23 1012.8 - 0.0 - - - - - - -
10/04:00am 23.2 SE 16 22 1013.0 - 0.0 - - - - - - -
10/03:30am 23.2 SSE 16 24 1013.2 - 0.0 - - - - - - -
10/03:00am 23.2 SSE 17 23 1013.3 - 0.0 - - - - - - -
10/02:30am 23.1 SSE 17 24 1013.6 - 0.0 - - - - - - -
10/02:00am 23.2 SSE 17 24 1014.1 - 0.0 - - - - - - -
10/01:30am 23.3 SSE 18 24 1014.4 - 0.0 - - - - - - -
10/01:00am 23.3 SSE 18 25 1014.6 - 0.0 - - - - - - -
10/12:30am 23.3 S 21 27 1015.0 - 0.0 - - - - - - -
10/12:00am 23.3 S 20 26 1015.7 - 0.0 - - - - - - -
 
Date/Time
EDT
Temp

°C
Wind Pressure Rain
since 9am
mm
Weather Cloud Vis
km
Sea
Height
m
Swell
Dir
 
Speed
knots
Gust
knots
hPa Trend Height
m
Period
s
Dir
09/11:30pm 23.3 S 20 26 1016.1 - 0.0 - - - - - - -
09/11:00pm 23.4 S 21 26 1016.4 - 0.0 - - - - - - -
09/10:30pm 23.4 SSE 19 26 1016.8 - 0.0 - - - - - - -
09/10:00pm 23.5 SSE 21 27 1016.6 - 0.0 - - - - - - -
09/09:30pm 23.5 SSE 19 27 1016.5 - 0.0 - - - - - - -
09/09:24pm 23.5 SSE 19 29 1016.4 - 0.0 - - - - - - -
09/09:00pm 23.5 SSE 21 26 1016.3 - 0.0 - - - - - - -
09/08:30pm 23.5 SSE 20 26 1016.2 - 0.0 - - - - - - -
09/08:00pm 23.5 S 21 29 1016.1 - 0.0 - - - - - - -
09/07:30pm 23.7 S 22 27 1016.0 - 0.0 - - - - - - -
09/07:00pm 24.1 S 22 29 1015.9 - 0.0 - - - - - - -
09/06:52pm 24.2 S 22 32 1015.7 - 0.0 - - - - - - -
09/06:30pm 24.4 S 23 29 1015.5 - 0.0 - - - - - - -
09/06:00pm 24.5 S 26 31 1015.4 - 0.0 - - - - - - -
09/05:30pm 24.8 S 23 29 1015.3 - 0.0 - - - - - - -
09/05:00pm 24.9 S 24 30 1015.1 - 0.0 - - - - - - -
09/04:30pm 25.0 S 25 29 1015.4 - 0.0 - - - - - - -
09/04:00pm 24.8 S 25 30 1015.4 - 0.0 - - - - - - -
09/03:30pm 25.0 S 20 26 1015.7 - 0.0 - - - - - - -
09/03:00pm 25.3 S 23 29 1015.8 - 0.0 - - - - - - -
09/02:30pm 25.2 S 23 29 1015.8 - 0.0 - - - - - - -
09/02:00pm 25.2 S 22 28 1016.0 - 0.0 - - - - - - -
09/01:30pm 25.3 SSE 22 28 1016.2 - 0.0 - - - - - - -
09/01:02pm 25.1 SSE 19 29 1016.2 - 0.0 - - - - - - -
09/01:00pm 25.0 SSE 19 26 1016.2 - 0.0 - - - - - - -
09/12:30pm 24.9 SSE 20 26 1016.4 - 0.0 - - - - - - -
09/12:00pm 25.1 SSE 18 25 1016.6 - 0.0 - - - - - - -
09/11:46am 24.9 SE 20 30 1016.6 - 0.0 - - - - - - -
09/11:30am 25.1 SSE 20 29 1016.4 - 0.0 - - - - - - -
09/11:06am 25.0 SSE 17 27 1016.7 - 0.0 - - - - - - -
09/11:00am 25.2 SSE 18 26 1016.7 - 0.0 - - - - - - -
09/10:38am 25.2 SE 20 30 1016.6 - 0.0 - - - - - - -
09/10:30am 25.2 SSE 18 25 1016.8 - 0.0 - - - - - - -
09/10:00am 24.7 SSE 20 27 1016.8 - 0.0 - - - - - - -
09/09:30am 24.7 SSE 19 26 1016.5 - 0.0 - - - - - - -
09/09:00am 24.6 SSE 19 25 1016.4 - 0.0 - - - - - - -
09/08:30am 24.1 SSE 19 27 1016.2 - 0.0 - - - - - - -
09/08:00am 24.2 SSE 20 26 1015.7 - 0.0 - - - - - - -
09/07:30am 23.9 SSE 21 28 1015.5 - 0.0 - - - - - - -
09/07:00am 23.9 S 21 27 1015.1 - 0.0 - - - - - - -
09/06:30am 23.4 SSE 20 27 1014.6 - 0.0 - - - - - - -
09/06:00am 23.4 SSE 18 24 1014.3 - 0.0 - - - - - - -
09/05:43am 23.4 SSE 20 28 1014.1 - 0.0 - - - - - - -
09/05:30am 23.6 S 22 29 1014.2 - 0.0 - - - - - - -
09/05:15am 23.4 SSE 19 29 1014.1 - 0.0 - - - - - - -
09/05:00am 23.5 SSE 20 28 1014.0 - 0.0 - - - - - - -
09/04:30am 23.5 SSE 18 24 1014.1 - 0.0 - - - - - - -
09/04:16am 23.6 SE 19 29 1014.0 - 0.0 - - - - - - -
09/04:12am 23.6 SE 19 29 1013.8 - 0.0 - - - - - - -
09/04:00am 23.7 S 20 26 1014.0 - 0.0 - - - - - - -
09/03:30am 23.1 SSE 19 29 1014.1 - 0.0 - - - - - - -
09/03:21am 23.3 SSE 19 29 1014.1 - 0.0 - - - - - - -
09/03:16am 23.5 SSE 19 26 1014.0 - 0.0 - - - - - - -
09/03:00am 23.5 S 21 28 1014.3 - 0.0 - - - - - - -
09/02:30am 23.9 S 24 29 1014.4 - 0.0 - - - - - - -

Other Formats:

Comma delimited format used in spreadsheet applications
http://www.bom.gov.au/fwo/IDN60701/IDN60701.94599.axf

JavaScript Object Notation format (JSON) in row-major order
http://www.bom.gov.au/fwo/IDN60701/IDN60701.94599.json